Terminal Aerodrome Forecast
Issued by NWS Wilmington, OH

Current Version | Previous Version | Text Only | Print | Product List | Glossary Off
Versions: 1 2 3 4 5 6 7 8 9 10 11 12 13 14 15 16 17 18 19 20 21 22 23 24 25 26

000
FTUS41 KILN 261700
TAFDAY
TAF
KDAY 261720Z 2618/2718 22011G19KT P6SM BKN035
     FM262300 22008KT P6SM BKN040 OVC200
     FM270300 21007KT 3SM -SHRA VCTS BKN040CB OVC150
      TEMPO 2703/2707 2SM -TSRA OVC020CB
     FM270900 20008KT P6SM VCSH SCT035 BKN080
     FM271500 23011G19KT P6SM -SHRA VCTS BKN035CB=

USA.gov is the U.S. government's official web portal to all federal, state and local government web resources and services.